sensor_id;sensor_type;location;lat;lon;timestamp;noise_LAeq;noise_LA_min;noise_LA_max;noise_LA01;noise_LA95
58251;Laerm;51449;51.676;5.812;2023-06-14T00:02:19;38.29;31.07;53.91;;
58251;Laerm;51449;51.676;5.812;2023-06-14T00:05:00;48.89;30.99;68.45;;
58251;Laerm;51449;51.676;5.812;2023-06-14T00:07:41;45.48;31.51;67.08;;
58251;Laerm;51449;51.676;5.812;2023-06-14T00:10:25;59.87;33.22;75.33;;
58251;Laerm;51449;51.676;5.812;2023-06-14T00:13:06;51.30;34.91;68.29;;
58251;Laerm;51449;51.676;5.812;2023-06-14T00:15:51;47.05;31.06;64.10;;
58251;Laerm;51449;51.676;5.812;2023-06-14T00:18:35;38.65;31.95;49.93;;
58251;Laerm;51449;51.676;5.812;2023-06-14T00:21:15;38.96;31.46;50.00;;
58251;Laerm;51449;51.676;5.812;2023-06-14T00:23:57;50.35;31.67;66.14;;
58251;Laerm;51449;51.676;5.812;2023-06-14T00:26:38;52.27;31.26;68.15;;
58251;Laerm;51449;51.676;5.812;2023-06-14T00:29:18;38.09;30.88;49.38;;
58251;Laerm;51449;51.676;5.812;2023-06-14T00:31:59;38.60;30.54;49.57;;
58251;Laerm;51449;51.676;5.812;2023-06-14T00:34:39;49.73;32.02;64.92;;
58251;Laerm;51449;51.676;5.812;2023-06-14T00:37:21;54.09;31.68;72.44;;
58251;Laerm;51449;51.676;5.812;2023-06-14T00:40:04;52.07;30.94;67.74;;
58251;Laerm;51449;51.676;5.812;2023-06-14T00:42:45;46.52;31.47;62.60;;
58251;Laerm;51449;51.676;5.812;2023-06-14T00:45:25;57.12;32.82;72.27;;
58251;Laerm;51449;51.676;5.812;2023-06-14T00:48:07;38.20;30.65;49.35;;
58251;Laerm;51449;51.676;5.812;2023-06-14T00:50:51;39.50;31.03;54.91;;
58251;Laerm;51449;51.676;5.812;2023-06-14T00:53:33;38.74;31.32;50.20;;
58251;Laerm;51449;51.676;5.812;2023-06-14T00:56:16;40.79;31.03;61.35;;
58251;Laerm;51449;51.676;5.812;2023-06-14T00:58:57;38.96;30.42;50.21;;
58251;Laerm;51449;51.676;5.812;2023-06-14T01:01:38;51.99;30.98;67.05;;
58251;Laerm;51449;51.676;5.812;2023-06-14T01:04:21;45.33;31.52;61.47;;
58251;Laerm;51449;51.676;5.812;2023-06-14T01:07:12;38.67;31.25;50.03;;
58251;Laerm;51449;51.676;5.812;2023-06-14T01:15:56;59.16;34.92;74.42;;
58251;Laerm;51449;51.676;5.812;2023-06-14T01:18:38;48.95;31.92;72.12;;
58251;Laerm;51449;51.676;5.812;2023-06-14T01:21:25;49.45;30.58;66.76;;
58251;Laerm;51449;51.676;5.812;2023-06-14T01:24:06;58.75;34.95;74.33;;
58251;Laerm;51449;51.676;5.812;2023-06-14T01:26:47;45.47;31.37;61.56;;
58251;Laerm;51449;51.676;5.812;2023-06-14T01:29:33;54.52;30.60;71.28;;
58251;Laerm;51449;51.676;5.812;2023-06-14T01:32:18;37.93;30.46;50.30;;
58251;Laerm;51449;51.676;5.812;2023-06-14T01:34:58;58.37;31.65;72.89;;
58251;Laerm;51449;51.676;5.812;2023-06-14T01:37:43;44.97;30.32;61.58;;
58251;Laerm;51449;51.676;5.812;2023-06-14T01:40:24;53.86;31.53;66.82;;
58251;Laerm;51449;51.676;5.812;2023-06-14T01:43:06;56.85;31.51;73.57;;
58251;Laerm;51449;51.676;5.812;2023-06-14T01:45:48;49.49;31.25;64.23;;
58251;Laerm;51449;51.676;5.812;2023-06-14T01:48:31;52.81;31.22;67.56;;
58251;Laerm;51449;51.676;5.812;2023-06-14T01:51:12;45.05;29.99;61.86;;
58251;Laerm;51449;51.676;5.812;2023-06-14T01:53:54;55.73;31.08;70.93;;
58251;Laerm;51449;51.676;5.812;2023-06-14T01:56:35;46.17;30.36;62.93;;
58251;Laerm;51449;51.676;5.812;2023-06-14T01:59:15;46.13;29.57;64.01;;
58251;Laerm;51449;51.676;5.812;2023-06-14T02:01:56;56.21;29.66;72.40;;
58251;Laerm;51449;51.676;5.812;2023-06-14T02:04:36;39.58;29.71;50.77;;
58251;Laerm;51449;51.676;5.812;2023-06-14T02:07:16;56.89;30.28;71.25;;
58251;Laerm;51449;51.676;5.812;2023-06-14T02:09:57;55.41;30.74;71.15;;
58251;Laerm;51449;51.676;5.812;2023-06-14T02:12:37;46.78;30.13;61.36;;
58251;Laerm;51449;51.676;5.812;2023-06-14T02:15:18;52.64;32.10;68.43;;
58251;Laerm;51449;51.676;5.812;2023-06-14T02:18:03;55.89;31.97;70.95;;
58251;Laerm;51449;51.676;5.812;2023-06-14T02:20:46;58.10;36.66;71.90;;
58251;Laerm;51449;51.676;5.812;2023-06-14T02:23:26;57.15;36.67;69.85;;
58251;Laerm;51449;51.676;5.812;2023-06-14T02:26:06;57.45;37.64;68.42;;
58251;Laerm;51449;51.676;5.812;2023-06-14T02:28:47;59.45;37.88;71.23;;
58251;Laerm;51449;51.676;5.812;2023-06-14T02:31:27;58.52;40.63;72.38;;
58251;Laerm;51449;51.676;5.812;2023-06-14T02:34:09;61.12;42.13;74.23;;
58251;Laerm;51449;51.676;5.812;2023-06-14T02:36:49;62.97;38.42;82.04;;
58251;Laerm;51449;51.676;5.812;2023-06-14T02:39:29;64.11;42.44;79.30;;
58251;Laerm;51449;51.676;5.812;2023-06-14T02:42:10;66.31;38.95;83.51;;
58251;Laerm;51449;51.676;5.812;2023-06-14T02:44:50;61.55;39.77;80.14;;
58251;Laerm;51449;51.676;5.812;2023-06-14T02:47:33;60.01;40.67;73.48;;
58251;Laerm;51449;51.676;5.812;2023-06-14T02:50:14;56.78;40.08;71.24;;
58251;Laerm;51449;51.676;5.812;2023-06-14T02:52:55;60.57;40.16;76.93;;
58251;Laerm;51449;51.676;5.812;2023-06-14T02:55:37;62.78;43.45;81.01;;
58251;Laerm;51449;51.676;5.812;2023-06-14T02:58:21;63.26;38.59;78.99;;
58251;Laerm;51449;51.676;5.812;2023-06-14T03:01:01;65.59;38.28;79.61;;
58251;Laerm;51449;51.676;5.812;2023-06-14T03:03:44;63.43;40.04;78.22;;
58251;Laerm;51449;51.676;5.812;2023-06-14T03:06:24;62.00;35.70;76.90;;
58251;Laerm;51449;51.676;5.812;2023-06-14T03:09:06;63.40;38.07;78.16;;
58251;Laerm;51449;51.676;5.812;2023-06-14T03:11:49;66.33;37.60;83.14;;
58251;Laerm;51449;51.676;5.812;2023-06-14T03:14:32;68.80;40.52;81.87;;
58251;Laerm;51449;51.676;5.812;2023-06-14T03:17:13;68.33;39.23;81.18;;
58251;Laerm;51449;51.676;5.812;2023-06-14T03:19:53;72.64;38.00;88.64;;
58251;Laerm;51449;51.676;5.812;2023-06-14T03:22:34;68.61;38.36;88.52;;
58251;Laerm;51449;51.676;5.812;2023-06-14T03:25:14;62.36;38.01;72.60;;
58251;Laerm;51449;51.676;5.812;2023-06-14T03:27:57;66.05;38.18;81.98;;
58251;Laerm;51449;51.676;5.812;2023-06-14T03:30:37;67.94;39.26;87.77;;
58251;Laerm;51449;51.676;5.812;2023-06-14T03:33:18;69.56;38.18;88.84;;
58251;Laerm;51449;51.676;5.812;2023-06-14T03:35:59;67.63;40.62;83.45;;
58251;Laerm;51449;51.676;5.812;2023-06-14T03:38:40;70.02;39.55;85.37;;
58251;Laerm;51449;51.676;5.812;2023-06-14T03:41:21;68.48;36.96;84.15;;
58251;Laerm;51449;51.676;5.812;2023-06-14T03:44:03;65.54;38.58;83.15;;
58251;Laerm;51449;51.676;5.812;2023-06-14T03:46:45;59.88;38.52;71.75;;
58251;Laerm;51449;51.676;5.812;2023-06-14T03:49:26;62.51;39.78;72.68;;
58251;Laerm;51449;51.676;5.812;2023-06-14T03:52:06;62.41;42.85;71.99;;
58251;Laerm;51449;51.676;5.812;2023-06-14T03:54:49;66.17;39.22;84.32;;
58251;Laerm;51449;51.676;5.812;2023-06-14T03:57:33;68.68;37.51;87.92;;
58251;Laerm;51449;51.676;5.812;2023-06-14T04:00:13;62.43;41.11;80.40;;
58251;Laerm;51449;51.676;5.812;2023-06-14T04:02:56;71.56;39.58;89.07;;
58251;Laerm;51449;51.676;5.812;2023-06-14T04:05:36;71.07;39.68;85.41;;
58251;Laerm;51449;51.676;5.812;2023-06-14T04:08:19;68.00;37.66;88.19;;
58251;Laerm;51449;51.676;5.812;2023-06-14T04:11:00;63.52;43.53;75.02;;
58251;Laerm;51449;51.676;5.812;2023-06-14T04:13:40;61.81;38.36;77.01;;
58251;Laerm;51449;51.676;5.812;2023-06-14T04:16:21;62.06;38.24;73.51;;
58251;Laerm;51449;51.676;5.812;2023-06-14T04:19:01;72.65;41.81;88.95;;
58251;Laerm;51449;51.676;5.812;2023-06-14T04:21:42;72.25;43.30;89.90;;
58251;Laerm;51449;51.676;5.812;2023-06-14T04:24:22;64.55;40.40;81.34;;
58251;Laerm;51449;51.676;5.812;2023-06-14T04:27:03;65.58;43.76;79.38;;
58251;Laerm;51449;51.676;5.812;2023-06-14T04:29:44;67.22;42.07;80.75;;
58251;Laerm;51449;51.676;5.812;2023-06-14T04:32:27;65.85;45.22;76.69;;
58251;Laerm;51449;51.676;5.812;2023-06-14T04:35:08;63.80;43.62;74.51;;
58251;Laerm;51449;51.676;5.812;2023-06-14T04:37:51;65.42;43.92;77.14;;
58251;Laerm;51449;51.676;5.812;2023-06-14T04:40:34;65.72;43.30;76.24;;
58251;Laerm;51449;51.676;5.812;2023-06-14T04:43:16;64.85;46.25;75.60;;
58251;Laerm;51449;51.676;5.812;2023-06-14T04:46:00;73.29;40.65;93.14;;
58251;Laerm;51449;51.676;5.812;2023-06-14T04:48:43;68.60;40.33;95.25;;
58251;Laerm;51449;51.676;5.812;2023-06-14T04:51:24;68.74;42.67;80.52;;
58251;Laerm;51449;51.676;5.812;2023-06-14T04:54:10;68.05;42.88;86.52;;
58251;Laerm;51449;51.676;5.812;2023-06-14T04:56:54;72.71;43.30;88.16;;
58251;Laerm;51449;51.676;5.812;2023-06-14T04:59:38;70.93;41.05;86.89;;
58251;Laerm;51449;51.676;5.812;2023-06-14T05:02:18;65.87;40.38;82.08;;
58251;Laerm;51449;51.676;5.812;2023-06-14T05:04:58;70.02;44.72;85.01;;
58251;Laerm;51449;51.676;5.812;2023-06-14T05:07:39;73.49;43.05;88.08;;
58251;Laerm;51449;51.676;5.812;2023-06-14T05:10:22;73.71;42.97;88.78;;
58251;Laerm;51449;51.676;5.812;2023-06-14T05:13:02;65.38;50.62;75.52;;
58251;Laerm;51449;51.676;5.812;2023-06-14T05:15:43;62.84;43.56;73.04;;
58251;Laerm;51449;51.676;5.812;2023-06-14T05:18:24;61.98;42.71;71.72;;
58251;Laerm;51449;51.676;5.812;2023-06-14T05:21:08;64.44;43.78;73.20;;
58251;Laerm;51449;51.676;5.812;2023-06-14T05:23:48;64.42;44.15;77.00;;
58251;Laerm;51449;51.676;5.812;2023-06-14T05:26:30;70.20;43.38;83.82;;
58251;Laerm;51449;51.676;5.812;2023-06-14T05:29:12;66.19;43.38;79.62;;
58251;Laerm;51449;51.676;5.812;2023-06-14T05:31:52;67.90;49.44;82.39;;
58251;Laerm;51449;51.676;5.812;2023-06-14T05:34:33;65.35;42.84;84.42;;
58251;Laerm;51449;51.676;5.812;2023-06-14T05:37:14;74.09;43.90;89.17;;
58251;Laerm;51449;51.676;5.812;2023-06-14T05:39:55;74.60;43.72;88.46;;
58251;Laerm;51449;51.676;5.812;2023-06-14T05:42:36;70.40;47.66;85.12;;
58251;Laerm;51449;51.676;5.812;2023-06-14T05:45:17;67.07;47.61;84.22;;
58251;Laerm;51449;51.676;5.812;2023-06-14T05:47:58;63.45;43.48;74.87;;
58251;Laerm;51449;51.676;5.812;2023-06-14T05:50:38;69.51;46.57;82.46;;
58251;Laerm;51449;51.676;5.812;2023-06-14T05:53:20;72.95;43.68;85.38;;
58251;Laerm;51449;51.676;5.812;2023-06-14T05:56:00;69.22;43.89;83.48;;
58251;Laerm;51449;51.676;5.812;2023-06-14T05:58:41;70.93;40.83;83.76;;
58251;Laerm;51449;51.676;5.812;2023-06-14T06:01:22;70.13;44.43;84.39;;
58251;Laerm;51449;51.676;5.812;2023-06-14T06:04:02;71.19;43.15;85.74;;
58251;Laerm;51449;51.676;5.812;2023-06-14T06:06:43;64.08;44.22;78.98;;
58251;Laerm;51449;51.676;5.812;2023-06-14T06:09:23;66.90;43.62;77.81;;
58251;Laerm;51449;51.676;5.812;2023-06-14T06:12:07;63.21;43.37;72.96;;
58251;Laerm;51449;51.676;5.812;2023-06-14T06:14:47;66.73;42.02;83.43;;
58251;Laerm;51449;51.676;5.812;2023-06-14T06:17:27;63.68;44.07;82.39;;
58251;Laerm;51449;51.676;5.812;2023-06-14T06:20:25;65.37;48.93;82.13;;
58251;Laerm;51449;51.676;5.812;2023-06-14T06:23:10;59.80;41.69;70.18;;
58251;Laerm;51449;51.676;5.812;2023-06-14T06:25:50;63.44;42.02;72.56;;
58251;Laerm;51449;51.676;5.812;2023-06-14T06:28:32;65.36;48.06;74.75;;
58251;Laerm;51449;51.676;5.812;2023-06-14T06:31:12;76.45;46.95;95.08;;
58251;Laerm;51449;51.676;5.812;2023-06-14T06:33:54;67.64;44.38;82.81;;
58251;Laerm;51449;51.676;5.812;2023-06-14T06:36:35;69.14;46.52;85.01;;
58251;Laerm;51449;51.676;5.812;2023-06-14T06:39:16;69.27;46.71;84.20;;
58251;Laerm;51449;51.676;5.812;2023-06-14T06:41:56;73.14;46.30;88.33;;
58251;Laerm;51449;51.676;5.812;2023-06-14T06:44:45;64.47;45.88;74.99;;
58251;Laerm;51449;51.676;5.812;2023-06-14T06:47:26;64.22;46.09;80.16;;
58251;Laerm;51449;51.676;5.812;2023-06-14T06:50:07;64.70;49.07;78.93;;
58251;Laerm;51449;51.676;5.812;2023-06-14T06:52:48;65.64;49.39;78.03;;
58251;Laerm;51449;51.676;5.812;2023-06-14T06:55:29;70.46;45.42;86.22;;
58251;Laerm;51449;51.676;5.812;2023-06-14T06:58:10;72.97;46.61;87.31;;
58251;Laerm;51449;51.676;5.812;2023-06-14T07:00:51;72.21;45.65;86.28;;
58251;Laerm;51449;51.676;5.812;2023-06-14T07:03:31;71.28;45.89;84.81;;
58251;Laerm;51449;51.676;5.812;2023-06-14T07:06:12;65.13;44.20;83.91;;
58251;Laerm;51449;51.676;5.812;2023-06-14T07:08:53;62.66;44.22;80.35;;
58251;Laerm;51449;51.676;5.812;2023-06-14T07:11:34;62.53;47.24;73.04;;
58251;Laerm;51449;51.676;5.812;2023-06-14T07:14:14;66.93;46.78;76.86;;
58251;Laerm;51449;51.676;5.812;2023-06-14T07:16:56;65.65;47.80;76.70;;
58251;Laerm;51449;51.676;5.812;2023-06-14T07:19:36;64.92;44.54;73.93;;
58251;Laerm;51449;51.676;5.812;2023-06-14T07:22:19;67.63;42.70;81.94;;
58251;Laerm;51449;51.676;5.812;2023-06-14T07:25:01;69.04;44.33;83.27;;
58251;Laerm;51449;51.676;5.812;2023-06-14T07:27:42;64.42;48.52;76.71;;
58251;Laerm;51449;51.676;5.812;2023-06-14T07:30:23;67.68;44.44;84.57;;
58251;Laerm;51449;51.676;5.812;2023-06-14T07:33:06;65.51;44.50;77.60;;
58251;Laerm;51449;51.676;5.812;2023-06-14T07:35:48;67.36;47.62;82.08;;
58251;Laerm;51449;51.676;5.812;2023-06-14T07:38:29;67.14;43.94;82.55;;
58251;Laerm;51449;51.676;5.812;2023-06-14T07:41:10;67.90;49.03;85.14;;
58251;Laerm;51449;51.676;5.812;2023-06-14T07:43:50;72.33;47.28;86.98;;
58251;Laerm;51449;51.676;5.812;2023-06-14T07:46:31;64.52;47.76;81.60;;
58251;Laerm;51449;51.676;5.812;2023-06-14T07:49:11;68.14;47.12;85.00;;
58251;Laerm;51449;51.676;5.812;2023-06-14T07:51:52;66.25;44.79;79.87;;
58251;Laerm;51449;51.676;5.812;2023-06-14T07:54:33;65.97;46.41;76.02;;
58251;Laerm;51449;51.676;5.812;2023-06-14T07:57:14;63.92;49.21;77.18;;
58251;Laerm;51449;51.676;5.812;2023-06-14T07:59:55;74.29;51.08;93.62;;
58251;Laerm;51449;51.676;5.812;2023-06-14T08:02:35;67.72;46.15;92.60;;
58251;Laerm;51449;51.676;5.812;2023-06-14T08:05:16;70.29;48.96;85.66;;
58251;Laerm;51449;51.676;5.812;2023-06-14T08:07:56;72.70;49.74;85.61;;
58251;Laerm;51449;51.676;5.812;2023-06-14T08:10:37;71.50;45.41;84.47;;
58251;Laerm;51449;51.676;5.812;2023-06-14T08:13:17;70.76;44.07;84.41;;
58251;Laerm;51449;51.676;5.812;2023-06-14T08:15:57;70.81;40.13;86.84;;
58251;Laerm;51449;51.676;5.812;2023-06-14T08:18:38;67.37;42.02;85.26;;
58251;Laerm;51449;51.676;5.812;2023-06-14T08:21:19;60.66;46.56;73.99;;
58251;Laerm;51449;51.676;5.812;2023-06-14T08:23:59;65.11;46.58;76.62;;
58251;Laerm;51449;51.676;5.812;2023-06-14T08:26:40;60.76;45.24;72.31;;
58251;Laerm;51449;51.676;5.812;2023-06-14T08:29:22;61.50;43.50;74.71;;
58251;Laerm;51449;51.676;5.812;2023-06-14T08:32:02;67.81;42.82;83.46;;
58251;Laerm;51449;51.676;5.812;2023-06-14T08:34:43;72.64;42.00;85.45;;
58251;Laerm;51449;51.676;5.812;2023-06-14T08:37:40;71.30;45.66;83.98;;
58251;Laerm;51449;51.676;5.812;2023-06-14T08:40:23;67.90;46.89;83.75;;
58251;Laerm;51449;51.676;5.812;2023-06-14T08:43:05;66.27;40.40;82.91;;
58251;Laerm;51449;51.676;5.812;2023-06-14T08:45:48;70.69;43.92;83.75;;
58251;Laerm;51449;51.676;5.812;2023-06-14T08:48:30;65.39;41.59;82.76;;
58251;Laerm;51449;51.676;5.812;2023-06-14T08:51:14;65.06;46.52;78.48;;
58251;Laerm;51449;51.676;5.812;2023-06-14T08:53:56;60.99;42.28;75.35;;
58251;Laerm;51449;51.676;5.812;2023-06-14T08:56:39;63.88;44.75;84.81;;
58251;Laerm;51449;51.676;5.812;2023-06-14T08:59:21;63.15;43.30;81.34;;
58251;Laerm;51449;51.676;5.812;2023-06-14T09:02:02;67.44;42.27;84.52;;
58251;Laerm;51449;51.676;5.812;2023-06-14T09:04:52;72.24;45.92;87.28;;
58251;Laerm;51449;51.676;5.812;2023-06-14T09:07:33;70.75;44.89;84.75;;
58251;Laerm;51449;51.676;5.812;2023-06-14T09:10:15;67.96;40.66;85.07;;
58251;Laerm;51449;51.676;5.812;2023-06-14T09:12:55;65.76;46.34;86.62;;
58251;Laerm;51449;51.676;5.812;2023-06-14T09:15:36;62.26;43.54;81.30;;
58251;Laerm;51449;51.676;5.812;2023-06-14T09:18:16;64.11;47.04;73.11;;
58251;Laerm;51449;51.676;5.812;2023-06-14T09:20:58;71.00;48.25;84.76;;
58251;Laerm;51449;51.676;5.812;2023-06-14T09:23:41;72.23;43.40;85.51;;
58251;Laerm;51449;51.676;5.812;2023-06-14T09:26:23;70.32;49.87;85.32;;
58251;Laerm;51449;51.676;5.812;2023-06-14T09:29:05;67.02;42.09;81.70;;
58251;Laerm;51449;51.676;5.812;2023-06-14T09:31:47;65.36;43.40;80.72;;
58251;Laerm;51449;51.676;5.812;2023-06-14T09:34:28;65.69;43.26;78.96;;
58251;Laerm;51449;51.676;5.812;2023-06-14T09:37:09;60.27;42.35;72.17;;
58251;Laerm;51449;51.676;5.812;2023-06-14T09:39:51;63.27;44.87;73.18;;
58251;Laerm;51449;51.676;5.812;2023-06-14T09:42:31;67.44;44.54;82.38;;
58251;Laerm;51449;51.676;5.812;2023-06-14T09:45:12;65.09;45.53;76.43;;
58251;Laerm;51449;51.676;5.812;2023-06-14T09:47:55;63.03;41.54;75.11;;
58251;Laerm;51449;51.676;5.812;2023-06-14T09:50:50;63.01;42.21;77.30;;
58251;Laerm;51449;51.676;5.812;2023-06-14T09:53:33;62.51;43.73;73.99;;
58251;Laerm;51449;51.676;5.812;2023-06-14T09:56:30;66.62;44.92;84.06;;
58251;Laerm;51449;51.676;5.812;2023-06-14T09:59:12;70.75;48.56;85.97;;
58251;Laerm;51449;51.676;5.812;2023-06-14T10:01:57;68.98;39.95;84.44;;
58251;Laerm;51449;51.676;5.812;2023-06-14T10:04:46;66.20;43.88;82.32;;
58251;Laerm;51449;51.676;5.812;2023-06-14T10:07:59;65.15;43.57;78.66;;
58251;Laerm;51449;51.676;5.812;2023-06-14T10:10:40;69.57;47.23;84.96;;
58251;Laerm;51449;51.676;5.812;2023-06-14T10:13:21;69.46;44.13;85.92;;
58251;Laerm;51449;51.676;5.812;2023-06-14T10:16:10;65.86;47.07;76.95;;
58251;Laerm;51449;51.676;5.812;2023-06-14T10:19:23;78.75;44.45;94.17;;
58251;Laerm;51449;51.676;5.812;2023-06-14T10:22:29;75.95;50.93;91.99;;
58251;Laerm;51449;51.676;5.812;2023-06-14T10:25:27;71.50;47.56;85.41;;
58251;Laerm;51449;51.676;5.812;2023-06-14T10:28:21;66.47;46.31;85.41;;
58251;Laerm;51449;51.676;5.812;2023-06-14T10:33:56;64.60;43.83;76.58;;
58251;Laerm;51449;51.676;5.812;2023-06-14T10:36:40;64.94;46.14;81.95;;
58251;Laerm;51449;51.676;5.812;2023-06-14T10:39:21;66.01;47.26;77.53;;
58251;Laerm;51449;51.676;5.812;2023-06-14T10:42:03;65.01;44.52;77.22;;
58251;Laerm;51449;51.676;5.812;2023-06-14T10:44:50;62.65;45.14;74.17;;
58251;Laerm;51449;51.676;5.812;2023-06-14T10:50:15;66.87;47.94;77.15;;
58251;Laerm;51449;51.676;5.812;2023-06-14T10:52:59;62.59;43.41;72.74;;
58251;Laerm;51449;51.676;5.812;2023-06-14T10:55:40;61.47;43.66;70.38;;
58251;Laerm;51449;51.676;5.812;2023-06-14T10:58:20;63.06;47.31;76.97;;
58251;Laerm;51449;51.676;5.812;2023-06-14T11:01:01;63.16;39.15;73.37;;
58251;Laerm;51449;51.676;5.812;2023-06-14T11:03:52;64.62;42.89;77.13;;
58251;Laerm;51449;51.676;5.812;2023-06-14T11:06:47;67.18;48.34;80.90;;
58251;Laerm;51449;51.676;5.812;2023-06-14T11:09:51;70.59;47.34;85.35;;
58251;Laerm;51449;51.676;5.812;2023-06-14T11:12:41;67.90;42.85;84.40;;
58251;Laerm;51449;51.676;5.812;2023-06-14T11:15:49;61.91;40.74;71.29;;
58251;Laerm;51449;51.676;5.812;2023-06-14T11:18:33;62.10;40.16;71.77;;
58251;Laerm;51449;51.676;5.812;2023-06-14T11:21:18;63.81;45.79;75.74;;
58251;Laerm;51449;51.676;5.812;2023-06-14T11:23:59;64.05;47.20;73.27;;
58251;Laerm;51449;51.676;5.812;2023-06-14T11:26:40;64.29;43.37;75.39;;
58251;Laerm;51449;51.676;5.812;2023-06-14T11:29:21;62.06;45.91;75.37;;
58251;Laerm;51449;51.676;5.812;2023-06-14T11:32:01;65.51;43.97;89.70;;
58251;Laerm;51449;51.676;5.812;2023-06-14T11:34:46;65.54;46.24;77.37;;
58251;Laerm;51449;51.676;5.812;2023-06-14T11:37:27;64.94;44.54;78.51;;
58251;Laerm;51449;51.676;5.812;2023-06-14T11:40:12;61.30;46.01;72.38;;
58251;Laerm;51449;51.676;5.812;2023-06-14T11:43:00;64.59;48.26;78.50;;
58251;Laerm;51449;51.676;5.812;2023-06-14T11:45:41;64.08;46.73;81.10;;
58251;Laerm;51449;51.676;5.812;2023-06-14T11:48:23;72.12;44.99;86.26;;
58251;Laerm;51449;51.676;5.812;2023-06-14T11:51:04;72.05;46.96;85.95;;
58251;Laerm;51449;51.676;5.812;2023-06-14T11:53:45;61.53;45.27;74.60;;
58251;Laerm;51449;51.676;5.812;2023-06-14T11:56:26;58.47;43.05;72.60;;
58251;Laerm;51449;51.676;5.812;2023-06-14T11:59:07;64.62;46.93;81.60;;
58251;Laerm;51449;51.676;5.812;2023-06-14T12:01:48;70.18;45.69;83.18;;
58251;Laerm;51449;51.676;5.812;2023-06-14T12:04:28;70.54;44.80;83.86;;
58251;Laerm;51449;51.676;5.812;2023-06-14T12:07:17;67.61;47.06;83.97;;
58251;Laerm;51449;51.676;5.812;2023-06-14T12:12:42;63.95;48.85;74.64;;
58251;Laerm;51449;51.676;5.812;2023-06-14T12:15:22;64.47;43.35;82.48;;
58251;Laerm;51449;51.676;5.812;2023-06-14T12:18:06;61.99;43.92;71.87;;
58251;Laerm;51449;51.676;5.812;2023-06-14T12:20:50;65.79;46.11;77.82;;
58251;Laerm;51449;51.676;5.812;2023-06-14T12:23:47;63.14;41.75;74.79;;
58251;Laerm;51449;51.676;5.812;2023-06-14T12:26:28;64.60;43.35;79.23;;
58251;Laerm;51449;51.676;5.812;2023-06-14T12:29:09;71.87;51.50;86.22;;
58251;Laerm;51449;51.676;5.812;2023-06-14T12:31:50;64.27;46.02;81.62;;
58251;Laerm;51449;51.676;5.812;2023-06-14T12:34:30;63.29;44.31;82.99;;
58251;Laerm;51449;51.676;5.812;2023-06-14T12:37:11;62.87;41.45;76.26;;
58251;Laerm;51449;51.676;5.812;2023-06-14T12:39:51;70.72;47.00;85.90;;
58251;Laerm;51449;51.676;5.812;2023-06-14T12:42:32;72.38;43.86;85.48;;
58251;Laerm;51449;51.676;5.812;2023-06-14T12:45:15;70.34;44.79;85.07;;
58251;Laerm;51449;51.676;5.812;2023-06-14T12:47:56;65.41;43.78;74.33;;
58251;Laerm;51449;51.676;5.812;2023-06-14T12:50:37;68.07;41.34;84.41;;
58251;Laerm;51449;51.676;5.812;2023-06-14T12:53:17;71.68;44.39;85.95;;
58251;Laerm;51449;51.676;5.812;2023-06-14T12:55:57;71.83;48.15;85.90;;
58251;Laerm;51449;51.676;5.812;2023-06-14T12:58:38;69.00;48.13;87.32;;
58251;Laerm;51449;51.676;5.812;2023-06-14T13:01:19;62.56;45.16;72.15;;
58251;Laerm;51449;51.676;5.812;2023-06-14T13:04:02;63.59;44.19;78.86;;
58251;Laerm;51449;51.676;5.812;2023-06-14T13:06:43;63.22;44.98;75.86;;
58251;Laerm;51449;51.676;5.812;2023-06-14T13:09:23;70.20;47.59;85.95;;
58251;Laerm;51449;51.676;5.812;2023-06-14T13:12:07;72.25;47.26;86.05;;
58251;Laerm;51449;51.676;5.812;2023-06-14T13:14:48;71.29;45.89;85.42;;
58251;Laerm;51449;51.676;5.812;2023-06-14T13:17:28;64.71;45.62;84.73;;
58251;Laerm;51449;51.676;5.812;2023-06-14T13:20:09;64.75;45.14;76.77;;
58251;Laerm;51449;51.676;5.812;2023-06-14T13:22:50;66.62;42.83;82.30;;
58251;Laerm;51449;51.676;5.812;2023-06-14T13:25:31;65.91;43.29;83.19;;
58251;Laerm;51449;51.676;5.812;2023-06-14T13:28:12;68.32;45.95;83.65;;
58251;Laerm;51449;51.676;5.812;2023-06-14T13:30:52;66.70;52.37;84.23;;
58251;Laerm;51449;51.676;5.812;2023-06-14T13:33:32;65.94;48.29;82.67;;
58251;Laerm;51449;51.676;5.812;2023-06-14T13:36:13;65.00;45.16;76.17;;
58251;Laerm;51449;51.676;5.812;2023-06-14T13:38:53;60.26;41.21;70.94;;
58251;Laerm;51449;51.676;5.812;2023-06-14T13:41:35;67.85;46.93;85.18;;
58251;Laerm;51449;51.676;5.812;2023-06-14T13:44:15;64.58;50.24;78.23;;
58251;Laerm;51449;51.676;5.812;2023-06-14T13:47:00;65.90;50.04;75.04;;
58251;Laerm;51449;51.676;5.812;2023-06-14T13:49:40;66.30;44.55;82.31;;
58251;Laerm;51449;51.676;5.812;2023-06-14T13:52:21;64.35;44.21;75.64;;
58251;Laerm;51449;51.676;5.812;2023-06-14T13:55:01;63.93;45.16;75.19;;
58251;Laerm;51449;51.676;5.812;2023-06-14T13:57:42;63.20;45.85;73.13;;
58251;Laerm;51449;51.676;5.812;2023-06-14T14:00:22;62.74;46.40;74.03;;
58251;Laerm;51449;51.676;5.812;2023-06-14T14:03:03;66.69;48.48;76.76;;
58251;Laerm;51449;51.676;5.812;2023-06-14T14:05:45;61.24;46.54;73.06;;
58251;Laerm;51449;51.676;5.812;2023-06-14T14:08:26;66.67;50.50;79.29;;
58251;Laerm;51449;51.676;5.812;2023-06-14T14:11:06;62.45;44.29;74.45;;
58251;Laerm;51449;51.676;5.812;2023-06-14T14:13:48;64.83;42.85;77.57;;
58251;Laerm;51449;51.676;5.812;2023-06-14T14:16:29;63.89;45.65;72.45;;
58251;Laerm;51449;51.676;5.812;2023-06-14T14:19:10;62.53;49.03;75.10;;
58251;Laerm;51449;51.676;5.812;2023-06-14T14:21:51;63.51;45.53;74.08;;
58251;Laerm;51449;51.676;5.812;2023-06-14T14:24:34;65.05;47.71;78.75;;
58251;Laerm;51449;51.676;5.812;2023-06-14T14:27:15;69.12;48.55;84.31;;
58251;Laerm;51449;51.676;5.812;2023-06-14T14:29:55;67.72;50.13;80.22;;
58251;Laerm;51449;51.676;5.812;2023-06-14T14:32:35;66.53;46.83;80.97;;
58251;Laerm;51449;51.676;5.812;2023-06-14T14:35:17;64.85;50.61;78.94;;
58251;Laerm;51449;51.676;5.812;2023-06-14T14:37:58;64.68;44.07;77.04;;
58251;Laerm;51449;51.676;5.812;2023-06-14T14:40:39;64.85;50.31;76.28;;
58251;Laerm;51449;51.676;5.812;2023-06-14T14:43:20;69.85;50.17;84.35;;
58251;Laerm;51449;51.676;5.812;2023-06-14T14:46:00;69.45;48.05;84.98;;
58251;Laerm;51449;51.676;5.812;2023-06-14T14:48:41;71.75;44.61;84.90;;
58251;Laerm;51449;51.676;5.812;2023-06-14T14:51:21;71.38;46.83;86.68;;
58251;Laerm;51449;51.676;5.812;2023-06-14T14:54:02;71.69;46.90;85.30;;
58251;Laerm;51449;51.676;5.812;2023-06-14T14:56:42;70.71;46.01;84.30;;
58251;Laerm;51449;51.676;5.812;2023-06-14T14:59:22;70.71;48.16;85.15;;
58251;Laerm;51449;51.676;5.812;2023-06-14T15:02:03;76.76;47.51;90.49;;
58251;Laerm;51449;51.676;5.812;2023-06-14T15:04:45;75.23;47.07;91.78;;
58251;Laerm;51449;51.676;5.812;2023-06-14T15:07:32;62.30;46.36;71.66;;
58251;Laerm;51449;51.676;5.812;2023-06-14T15:10:14;61.66;43.37;75.27;;
58251;Laerm;51449;51.676;5.812;2023-06-14T15:12:55;64.60;48.41;76.99;;
58251;Laerm;51449;51.676;5.812;2023-06-14T15:15:36;61.79;46.19;69.74;;
58251;Laerm;51449;51.676;5.812;2023-06-14T15:18:17;68.55;47.30;85.31;;
58251;Laerm;51449;51.676;5.812;2023-06-14T15:20:57;69.67;47.58;86.65;;
58251;Laerm;51449;51.676;5.812;2023-06-14T15:23:37;63.29;45.41;74.19;;